sensor_id;sensor_type;location;lat;lon;timestamp;P1;durP1;ratioP1;P2;durP2;ratioP2
66927;SDS011;59882;45.624;11.698;2023-08-21T00:01:28;31.33;;;28.33;;
66927;SDS011;59882;45.624;11.698;2023-08-21T00:03:53;31.13;;;28.27;;
66927;SDS011;59882;45.624;11.698;2023-08-21T00:06:19;32.97;;;29.77;;
66927;SDS011;59882;45.624;11.698;2023-08-21T00:08:45;32.03;;;28.83;;
66927;SDS011;59882;45.624;11.698;2023-08-21T00:11:11;32.28;;;29.08;;
66927;SDS011;59882;45.624;11.698;2023-08-21T00:13:37;32.67;;;29.47;;
66927;SDS011;59882;45.624;11.698;2023-08-21T00:16:02;33.60;;;30.25;;
66927;SDS011;59882;45.624;11.698;2023-08-21T00:18:28;32.13;;;28.87;;
66927;SDS011;59882;45.624;11.698;2023-08-21T00:20:54;33.35;;;30.05;;
66927;SDS011;59882;45.624;11.698;2023-08-21T00:23:19;28.63;;;25.73;;
66927;SDS011;59882;45.624;11.698;2023-08-21T00:25:46;27.83;;;25.03;;
66927;SDS011;59882;45.624;11.698;2023-08-21T00:28:12;27.55;;;24.75;;
66927;SDS011;59882;45.624;11.698;2023-08-21T00:30:38;29.40;;;26.48;;
66927;SDS011;59882;45.624;11.698;2023-08-21T00:33:04;26.83;;;24.03;;
66927;SDS011;59882;45.624;11.698;2023-08-21T00:35:29;27.00;;;24.30;;
66927;SDS011;59882;45.624;11.698;2023-08-21T00:37:55;26.60;;;23.27;;
66927;SDS011;59882;45.624;11.698;2023-08-21T00:40:21;31.38;;;28.20;;
66927;SDS011;59882;45.624;11.698;2023-08-21T00:42:46;27.80;;;24.90;;
66927;SDS011;59882;45.624;11.698;2023-08-21T00:45:12;32.72;;;29.38;;
66927;SDS011;59882;45.624;11.698;2023-08-21T00:47:37;32.33;;;29.13;;
66927;SDS011;59882;45.624;11.698;2023-08-21T00:50:04;31.05;;;27.88;;
66927;SDS011;59882;45.624;11.698;2023-08-21T00:52:32;33.78;;;30.52;;
66927;SDS011;59882;45.624;11.698;2023-08-21T00:55:00;32.80;;;29.30;;
66927;SDS011;59882;45.624;11.698;2023-08-21T00:57:26;32.47;;;29.38;;
66927;SDS011;59882;45.624;11.698;2023-08-21T00:59:52;30.08;;;27.17;;
66927;SDS011;59882;45.624;11.698;2023-08-21T01:02:18;30.48;;;27.60;;
66927;SDS011;59882;45.624;11.698;2023-08-21T01:04:44;33.03;;;29.73;;
66927;SDS011;59882;45.624;11.698;2023-08-21T01:07:10;33.50;;;30.40;;
66927;SDS011;59882;45.624;11.698;2023-08-21T01:09:38;32.60;;;29.33;;
66927;SDS011;59882;45.624;11.698;2023-08-21T01:12:17;35.08;;;31.42;;
66927;SDS011;59882;45.624;11.698;2023-08-21T01:14:51;33.08;;;29.67;;
66927;SDS011;59882;45.624;11.698;2023-08-21T01:17:38;35.28;;;31.67;;
66927;SDS011;59882;45.624;11.698;2023-08-21T01:20:06;30.50;;;27.63;;
66927;SDS011;59882;45.624;11.698;2023-08-21T01:22:37;32.30;;;29.10;;
66927;SDS011;59882;45.624;11.698;2023-08-21T01:25:07;33.17;;;29.83;;
66927;SDS011;59882;45.624;11.698;2023-08-21T01:27:36;33.33;;;30.20;;
66927;SDS011;59882;45.624;11.698;2023-08-21T01:30:03;33.92;;;30.05;;
66927;SDS011;59882;45.624;11.698;2023-08-21T01:35:30;34.77;;;31.10;;
66927;SDS011;59882;45.624;11.698;2023-08-21T01:37:58;34.15;;;30.73;;
66927;SDS011;59882;45.624;11.698;2023-08-21T01:40:25;33.30;;;30.00;;
66927;SDS011;59882;45.624;11.698;2023-08-21T01:42:54;32.50;;;29.27;;
66927;SDS011;59882;45.624;11.698;2023-08-21T01:45:20;31.73;;;28.63;;
66927;SDS011;59882;45.624;11.698;2023-08-21T01:47:47;32.72;;;29.42;;
66927;SDS011;59882;45.624;11.698;2023-08-21T01:50:13;30.08;;;27.02;;
66927;SDS011;59882;45.624;11.698;2023-08-21T01:52:39;31.80;;;28.50;;
66927;SDS011;59882;45.624;11.698;2023-08-21T01:55:05;30.80;;;27.73;;
66927;SDS011;59882;45.624;11.698;2023-08-21T01:57:33;29.85;;;26.95;;
66927;SDS011;59882;45.624;11.698;2023-08-21T01:59:59;28.67;;;25.58;;
66927;SDS011;59882;45.624;11.698;2023-08-21T02:02:25;27.88;;;25.02;;
66927;SDS011;59882;45.624;11.698;2023-08-21T02:04:51;25.70;;;23.07;;
66927;SDS011;59882;45.624;11.698;2023-08-21T02:07:17;27.75;;;24.95;;
66927;SDS011;59882;45.624;11.698;2023-08-21T02:09:43;26.23;;;23.38;;
66927;SDS011;59882;45.624;11.698;2023-08-21T02:12:09;26.83;;;24.20;;
66927;SDS011;59882;45.624;11.698;2023-08-21T02:14:35;26.98;;;24.38;;
66927;SDS011;59882;45.624;11.698;2023-08-21T02:17:01;27.57;;;24.60;;
66927;SDS011;59882;45.624;11.698;2023-08-21T02:19:28;26.05;;;23.42;;
66927;SDS011;59882;45.624;11.698;2023-08-21T02:21:54;27.98;;;25.08;;
66927;SDS011;59882;45.624;11.698;2023-08-21T02:24:20;26.65;;;23.95;;
66927;SDS011;59882;45.624;11.698;2023-08-21T02:26:45;28.57;;;25.80;;
66927;SDS011;59882;45.624;11.698;2023-08-21T02:29:11;29.98;;;26.77;;
66927;SDS011;59882;45.624;11.698;2023-08-21T02:31:37;26.98;;;24.27;;
66927;SDS011;59882;45.624;11.698;2023-08-21T02:34:03;28.37;;;25.37;;
66927;SDS011;59882;45.624;11.698;2023-08-21T02:36:30;27.50;;;24.55;;
66927;SDS011;59882;45.624;11.698;2023-08-21T02:38:56;25.00;;;22.35;;
66927;SDS011;59882;45.624;11.698;2023-08-21T02:41:22;23.70;;;21.42;;
66927;SDS011;59882;45.624;11.698;2023-08-21T02:43:48;23.60;;;21.13;;
66927;SDS011;59882;45.624;11.698;2023-08-21T02:46:15;23.23;;;20.65;;
66927;SDS011;59882;45.624;11.698;2023-08-21T02:48:41;24.60;;;22.13;;
66927;SDS011;59882;45.624;11.698;2023-08-21T02:51:08;24.70;;;22.15;;
66927;SDS011;59882;45.624;11.698;2023-08-21T02:53:35;23.30;;;20.23;;
66927;SDS011;59882;45.624;11.698;2023-08-21T02:56:01;25.23;;;22.53;;
66927;SDS011;59882;45.624;11.698;2023-08-21T02:58:27;23.33;;;20.90;;
66927;SDS011;59882;45.624;11.698;2023-08-21T03:00:53;25.40;;;22.80;;
66927;SDS011;59882;45.624;11.698;2023-08-21T03:03:19;24.20;;;19.47;;
66927;SDS011;59882;45.624;11.698;2023-08-21T03:05:44;27.85;;;25.00;;
66927;SDS011;59882;45.624;11.698;2023-08-21T03:08:10;26.90;;;24.10;;
66927;SDS011;59882;45.624;11.698;2023-08-21T03:10:36;27.53;;;24.27;;
66927;SDS011;59882;45.624;11.698;2023-08-21T03:13:02;28.92;;;26.00;;
66927;SDS011;59882;45.624;11.698;2023-08-21T03:15:28;28.15;;;25.35;;
66927;SDS011;59882;45.624;11.698;2023-08-21T03:17:55;26.15;;;23.40;;
66927;SDS011;59882;45.624;11.698;2023-08-21T03:20:20;24.23;;;21.77;;
66927;SDS011;59882;45.624;11.698;2023-08-21T03:22:46;28.85;;;25.88;;
66927;SDS011;59882;45.624;11.698;2023-08-21T03:25:12;24.92;;;22.27;;
66927;SDS011;59882;45.624;11.698;2023-08-21T03:27:38;28.20;;;24.87;;
66927;SDS011;59882;45.624;11.698;2023-08-21T03:30:07;28.95;;;25.95;;
66927;SDS011;59882;45.624;11.698;2023-08-21T03:32:33;26.98;;;23.95;;
66927;SDS011;59882;45.624;11.698;2023-08-21T03:34:59;25.23;;;21.73;;
66927;SDS011;59882;45.624;11.698;2023-08-21T03:37:25;25.37;;;22.40;;
66927;SDS011;59882;45.624;11.698;2023-08-21T03:39:51;23.75;;;21.30;;
66927;SDS011;59882;45.624;11.698;2023-08-21T03:42:17;23.92;;;21.48;;
66927;SDS011;59882;45.624;11.698;2023-08-21T03:44:43;25.75;;;21.55;;
66927;SDS011;59882;45.624;11.698;2023-08-21T03:47:10;24.23;;;21.80;;
66927;SDS011;59882;45.624;11.698;2023-08-21T03:49:36;25.95;;;21.73;;
66927;SDS011;59882;45.624;11.698;2023-08-21T03:52:03;23.13;;;20.67;;
66927;SDS011;59882;45.624;11.698;2023-08-21T03:54:29;23.45;;;20.65;;
66927;SDS011;59882;45.624;11.698;2023-08-21T03:56:55;23.30;;;20.07;;
66927;SDS011;59882;45.624;11.698;2023-08-21T03:59:21;22.40;;;19.80;;
66927;SDS011;59882;45.624;11.698;2023-08-21T04:01:48;20.95;;;18.88;;
66927;SDS011;59882;45.624;11.698;2023-08-21T04:04:14;18.38;;;16.45;;
66927;SDS011;59882;45.624;11.698;2023-08-21T04:06:40;20.93;;;18.83;;
66927;SDS011;59882;45.624;11.698;2023-08-21T04:09:06;21.23;;;19.02;;
66927;SDS011;59882;45.624;11.698;2023-08-21T04:11:32;20.50;;;18.38;;
66927;SDS011;59882;45.624;11.698;2023-08-21T04:13:58;21.70;;;19.50;;
66927;SDS011;59882;45.624;11.698;2023-08-21T04:16:25;22.50;;;19.45;;
66927;SDS011;59882;45.624;11.698;2023-08-21T04:18:52;23.73;;;21.42;;
66927;SDS011;59882;45.624;11.698;2023-08-21T04:21:18;27.33;;;24.08;;
66927;SDS011;59882;45.624;11.698;2023-08-21T04:23:44;29.80;;;26.67;;
66927;SDS011;59882;45.624;11.698;2023-08-21T04:26:13;30.15;;;26.67;;
66927;SDS011;59882;45.624;11.698;2023-08-21T04:28:39;33.05;;;27.15;;
66927;SDS011;59882;45.624;11.698;2023-08-21T04:31:06;28.80;;;25.73;;
66927;SDS011;59882;45.624;11.698;2023-08-21T04:33:32;30.48;;;27.27;;
66927;SDS011;59882;45.624;11.698;2023-08-21T04:35:59;27.73;;;24.77;;
66927;SDS011;59882;45.624;11.698;2023-08-21T04:38:25;27.98;;;24.33;;
66927;SDS011;59882;45.624;11.698;2023-08-21T04:40:50;26.38;;;23.35;;
66927;SDS011;59882;45.624;11.698;2023-08-21T04:43:16;23.47;;;20.97;;
66927;SDS011;59882;45.624;11.698;2023-08-21T04:45:49;23.63;;;20.40;;
66927;SDS011;59882;45.624;11.698;2023-08-21T04:48:15;22.95;;;20.65;;
66927;SDS011;59882;45.624;11.698;2023-08-21T04:50:41;24.07;;;21.17;;
66927;SDS011;59882;45.624;11.698;2023-08-21T04:53:07;25.88;;;21.15;;
66927;SDS011;59882;45.624;11.698;2023-08-21T04:55:32;24.23;;;21.13;;
66927;SDS011;59882;45.624;11.698;2023-08-21T04:57:58;26.07;;;20.57;;
66927;SDS011;59882;45.624;11.698;2023-08-21T05:00:24;23.13;;;19.23;;
66927;SDS011;59882;45.624;11.698;2023-08-21T05:02:49;22.60;;;20.17;;
66927;SDS011;59882;45.624;11.698;2023-08-21T05:05:15;20.37;;;18.27;;
66927;SDS011;59882;45.624;11.698;2023-08-21T05:07:41;22.45;;;19.88;;
66927;SDS011;59882;45.624;11.698;2023-08-21T05:10:07;26.13;;;21.03;;
66927;SDS011;59882;45.624;11.698;2023-08-21T05:12:33;27.33;;;19.38;;
66927;SDS011;59882;45.624;11.698;2023-08-21T05:14:58;27.50;;;19.80;;
66927;SDS011;59882;45.624;11.698;2023-08-21T05:17:24;19.63;;;17.40;;
66927;SDS011;59882;45.624;11.698;2023-08-21T05:19:51;25.90;;;21.90;;
66927;SDS011;59882;45.624;11.698;2023-08-21T05:22:17;23.87;;;19.70;;
66927;SDS011;59882;45.624;11.698;2023-08-21T05:24:42;24.57;;;22.00;;
66927;SDS011;59882;45.624;11.698;2023-08-21T05:27:08;25.03;;;21.90;;
66927;SDS011;59882;45.624;11.698;2023-08-21T05:29:34;24.77;;;22.13;;
66927;SDS011;59882;45.624;11.698;2023-08-21T05:31:59;24.42;;;21.83;;
66927;SDS011;59882;45.624;11.698;2023-08-21T05:34:25;25.60;;;20.37;;
66927;SDS011;59882;45.624;11.698;2023-08-21T05:36:51;24.45;;;20.55;;
66927;SDS011;59882;45.624;11.698;2023-08-21T05:39:19;22.97;;;20.10;;
66927;SDS011;59882;45.624;11.698;2023-08-21T05:41:45;21.52;;;19.33;;
66927;SDS011;59882;45.624;11.698;2023-08-21T05:44:11;22.17;;;20.00;;
66927;SDS011;59882;45.624;11.698;2023-08-21T05:46:37;25.83;;;20.63;;
66927;SDS011;59882;45.624;11.698;2023-08-21T05:49:03;23.33;;;20.92;;
66927;SDS011;59882;45.624;11.698;2023-08-21T05:51:28;24.00;;;21.17;;
66927;SDS011;59882;45.624;11.698;2023-08-21T05:53:54;23.43;;;19.17;;
66927;SDS011;59882;45.624;11.698;2023-08-21T05:56:21;22.30;;;19.25;;
66927;SDS011;59882;45.624;11.698;2023-08-21T05:58:47;26.07;;;21.27;;
66927;SDS011;59882;45.624;11.698;2023-08-21T06:01:13;29.85;;;22.63;;
66927;SDS011;59882;45.624;11.698;2023-08-21T06:03:38;27.07;;;23.43;;
66927;SDS011;59882;45.624;11.698;2023-08-21T06:06:04;30.30;;;24.67;;
66927;SDS011;59882;45.624;11.698;2023-08-21T06:08:30;27.67;;;23.50;;
66927;SDS011;59882;45.624;11.698;2023-08-21T06:10:56;28.17;;;21.35;;
66927;SDS011;59882;45.624;11.698;2023-08-21T06:13:22;28.40;;;23.90;;
66927;SDS011;59882;45.624;11.698;2023-08-21T06:15:47;27.53;;;23.07;;
66927;SDS011;59882;45.624;11.698;2023-08-21T06:18:13;28.00;;;21.83;;
66927;SDS011;59882;45.624;11.698;2023-08-21T06:20:41;26.33;;;22.75;;
66927;SDS011;59882;45.624;11.698;2023-08-21T06:23:08;24.98;;;21.48;;
66927;SDS011;59882;45.624;11.698;2023-08-21T06:25:34;30.02;;;22.08;;
66927;SDS011;59882;45.624;11.698;2023-08-21T06:28:00;27.80;;;20.00;;
66927;SDS011;59882;45.624;11.698;2023-08-21T06:30:26;27.45;;;20.58;;
66927;SDS011;59882;45.624;11.698;2023-08-21T06:32:52;29.60;;;20.43;;
66927;SDS011;59882;45.624;11.698;2023-08-21T06:35:17;25.73;;;18.95;;
66927;SDS011;59882;45.624;11.698;2023-08-21T06:37:43;25.57;;;18.00;;
66927;SDS011;59882;45.624;11.698;2023-08-21T06:40:09;19.95;;;17.25;;
66927;SDS011;59882;45.624;11.698;2023-08-21T06:42:34;21.57;;;18.90;;
66927;SDS011;59882;45.624;11.698;2023-08-21T06:45:00;21.15;;;18.40;;
66927;SDS011;59882;45.624;11.698;2023-08-21T06:47:26;26.43;;;19.53;;
66927;SDS011;59882;45.624;11.698;2023-08-21T06:49:51;19.75;;;17.58;;
66927;SDS011;59882;45.624;11.698;2023-08-21T06:52:17;18.03;;;16.07;;
66927;SDS011;59882;45.624;11.698;2023-08-21T06:54:43;20.20;;;18.17;;
66927;SDS011;59882;45.624;11.698;2023-08-21T06:57:08;19.80;;;17.43;;
66927;SDS011;59882;45.624;11.698;2023-08-21T06:59:34;19.33;;;16.40;;
66927;SDS011;59882;45.624;11.698;2023-08-21T07:02:01;19.17;;;16.45;;
66927;SDS011;59882;45.624;11.698;2023-08-21T07:04:28;19.85;;;15.85;;
66927;SDS011;59882;45.624;11.698;2023-08-21T07:06:53;17.93;;;14.30;;
66927;SDS011;59882;45.624;11.698;2023-08-21T07:09:19;17.02;;;13.95;;
66927;SDS011;59882;45.624;11.698;2023-08-21T07:11:45;17.25;;;15.18;;
66927;SDS011;59882;45.624;11.698;2023-08-21T07:14:11;16.63;;;14.37;;
66927;SDS011;59882;45.624;11.698;2023-08-21T07:16:38;19.02;;;16.20;;
66927;SDS011;59882;45.624;11.698;2023-08-21T07:19:04;18.93;;;17.00;;
66927;SDS011;59882;45.624;11.698;2023-08-21T07:21:30;19.90;;;17.35;;
66927;SDS011;59882;45.624;11.698;2023-08-21T07:23:55;20.73;;;16.57;;
66927;SDS011;59882;45.624;11.698;2023-08-21T07:26:21;20.27;;;15.93;;
66927;SDS011;59882;45.624;11.698;2023-08-21T07:28:47;15.63;;;13.90;;
66927;SDS011;59882;45.624;11.698;2023-08-21T07:31:12;19.70;;;14.57;;
66927;SDS011;59882;45.624;11.698;2023-08-21T07:33:38;14.70;;;12.83;;
66927;SDS011;59882;45.624;11.698;2023-08-21T07:36:04;16.43;;;13.23;;
66927;SDS011;59882;45.624;11.698;2023-08-21T07:38:31;15.00;;;13.35;;
66927;SDS011;59882;45.624;11.698;2023-08-21T07:41:06;13.73;;;12.23;;
66927;SDS011;59882;45.624;11.698;2023-08-21T07:43:44;17.20;;;12.05;;
66927;SDS011;59882;45.624;11.698;2023-08-21T07:46:11;12.82;;;10.73;;
66927;SDS011;59882;45.624;11.698;2023-08-21T07:48:40;13.83;;;11.73;;
66927;SDS011;59882;45.624;11.698;2023-08-21T07:51:07;12.13;;;10.93;;
66927;SDS011;59882;45.624;11.698;2023-08-21T07:53:33;14.20;;;12.23;;
66927;SDS011;59882;45.624;11.698;2023-08-21T07:55:59;14.70;;;11.50;;
66927;SDS011;59882;45.624;11.698;2023-08-21T07:58:26;16.13;;;13.35;;
66927;SDS011;59882;45.624;11.698;2023-08-21T08:00:51;14.60;;;13.05;;
66927;SDS011;59882;45.624;11.698;2023-08-21T08:03:17;20.23;;;13.60;;
66927;SDS011;59882;45.624;11.698;2023-08-21T08:05:43;20.05;;;17.33;;
66927;SDS011;59882;45.624;11.698;2023-08-21T08:08:09;19.30;;;16.27;;
66927;SDS011;59882;45.624;11.698;2023-08-21T08:10:38;20.25;;;18.00;;
66927;SDS011;59882;45.624;11.698;2023-08-21T08:13:05;20.25;;;16.45;;
66927;SDS011;59882;45.624;11.698;2023-08-21T08:15:31;17.23;;;15.40;;
66927;SDS011;59882;45.624;11.698;2023-08-21T08:17:57;17.20;;;15.33;;
66927;SDS011;59882;45.624;11.698;2023-08-21T08:20:22;15.82;;;14.18;;
66927;SDS011;59882;45.624;11.698;2023-08-21T08:22:48;14.07;;;12.67;;
66927;SDS011;59882;45.624;11.698;2023-08-21T08:25:13;14.27;;;12.80;;
66927;SDS011;59882;45.624;11.698;2023-08-21T08:27:39;14.17;;;12.23;;
66927;SDS011;59882;45.624;11.698;2023-08-21T08:30:05;15.38;;;13.77;;
66927;SDS011;59882;45.624;11.698;2023-08-21T08:32:31;17.23;;;12.90;;
66927;SDS011;59882;45.624;11.698;2023-08-21T08:34:57;16.50;;;11.70;;
66927;SDS011;59882;45.624;11.698;2023-08-21T08:37:23;14.63;;;11.77;;
66927;SDS011;59882;45.624;11.698;2023-08-21T08:39:48;13.98;;;11.57;;
66927;SDS011;59882;45.624;11.698;2023-08-21T08:42:14;16.50;;;13.60;;
66927;SDS011;59882;45.624;11.698;2023-08-21T08:44:41;13.90;;;12.07;;
66927;SDS011;59882;45.624;11.698;2023-08-21T08:47:08;13.30;;;11.45;;
66927;SDS011;59882;45.624;11.698;2023-08-21T08:49:35;11.82;;;10.63;;
66927;SDS011;59882;45.624;11.698;2023-08-21T08:52:00;12.60;;;9.83;;
66927;SDS011;59882;45.624;11.698;2023-08-21T08:54:26;11.23;;;10.13;;
66927;SDS011;59882;45.624;11.698;2023-08-21T08:56:53;12.10;;;10.70;;
66927;SDS011;59882;45.624;11.698;2023-08-21T08:59:19;10.65;;;9.48;;
66927;SDS011;59882;45.624;11.698;2023-08-21T09:01:44;11.40;;;9.65;;
66927;SDS011;59882;45.624;11.698;2023-08-21T09:04:10;15.13;;;10.90;;
66927;SDS011;59882;45.624;11.698;2023-08-21T09:06:36;14.57;;;10.57;;
66927;SDS011;59882;45.624;11.698;2023-08-21T09:09:02;14.60;;;11.30;;
66927;SDS011;59882;45.624;11.698;2023-08-21T09:11:29;13.57;;;9.88;;
66927;SDS011;59882;45.624;11.698;2023-08-21T09:13:55;14.20;;;10.48;;
66927;SDS011;59882;45.624;11.698;2023-08-21T09:16:22;12.05;;;9.90;;
66927;SDS011;59882;45.624;11.698;2023-08-21T09:18:48;13.55;;;10.95;;
66927;SDS011;59882;45.624;11.698;2023-08-21T09:21:18;12.10;;;10.80;;
66927;SDS011;59882;45.624;11.698;2023-08-21T09:23:44;13.20;;;10.80;;
66927;SDS011;59882;45.624;11.698;2023-08-21T09:26:20;13.75;;;11.80;;
66927;SDS011;59882;45.624;11.698;2023-08-21T09:28:47;11.95;;;10.57;;
66927;SDS011;59882;45.624;11.698;2023-08-21T09:31:13;19.10;;;14.13;;
66927;SDS011;59882;45.624;11.698;2023-08-21T09:33:39;12.47;;;11.00;;
66927;SDS011;59882;45.624;11.698;2023-08-21T09:36:05;12.55;;;10.60;;
66927;SDS011;59882;45.624;11.698;2023-08-21T09:38:31;13.10;;;11.23;;
66927;SDS011;59882;45.624;11.698;2023-08-21T09:41:00;15.13;;;12.13;;
66927;SDS011;59882;45.624;11.698;2023-08-21T09:43:26;13.05;;;11.35;;
66927;SDS011;59882;45.624;11.698;2023-08-21T09:45:52;15.10;;;12.10;;
66927;SDS011;59882;45.624;11.698;2023-08-21T09:48:24;13.88;;;11.93;;
66927;SDS011;59882;45.624;11.698;2023-08-21T09:50:54;13.18;;;11.65;;
66927;SDS011;59882;45.624;11.698;2023-08-21T09:53:24;11.98;;;10.85;;
66927;SDS011;59882;45.624;11.698;2023-08-21T09:55:53;12.27;;;11.07;;
66927;SDS011;59882;45.624;11.698;2023-08-21T09:58:20;13.20;;;11.52;;
66927;SDS011;59882;45.624;11.698;2023-08-21T10:00:46;12.82;;;10.90;;
66927;SDS011;59882;45.624;11.698;2023-08-21T10:03:13;11.70;;;10.60;;
66927;SDS011;59882;45.624;11.698;2023-08-21T10:05:44;11.98;;;10.77;;
66927;SDS011;59882;45.624;11.698;2023-08-21T10:08:11;11.82;;;10.35;;
66927;SDS011;59882;45.624;11.698;2023-08-21T10:10:40;13.63;;;10.30;;
66927;SDS011;59882;45.624;11.698;2023-08-21T10:13:07;11.43;;;10.10;;
66927;SDS011;59882;45.624;11.698;2023-08-21T10:15:33;10.68;;;9.35;;
66927;SDS011;59882;45.624;11.698;2023-08-21T10:20:45;11.75;;;10.35;;
66927;SDS011;59882;45.624;11.698;2023-08-21T10:23:12;11.43;;;10.05;;
66927;SDS011;59882;45.624;11.698;2023-08-21T10:25:56;12.47;;;9.90;;
66927;SDS011;59882;45.624;11.698;2023-08-21T10:28:22;11.93;;;9.43;;
66927;SDS011;59882;45.624;11.698;2023-08-21T10:30:48;11.07;;;9.98;;
66927;SDS011;59882;45.624;11.698;2023-08-21T10:33:14;10.05;;;9.05;;
66927;SDS011;59882;45.624;11.698;2023-08-21T10:35:40;11.20;;;9.97;;
66927;SDS011;59882;45.624;11.698;2023-08-21T10:43:51;8.93;;;7.95;;
66927;SDS011;59882;45.624;11.698;2023-08-21T10:46:17;9.88;;;8.88;;
66927;SDS011;59882;45.624;11.698;2023-08-21T10:48:42;11.90;;;8.07;;
66927;SDS011;59882;45.624;11.698;2023-08-21T10:51:08;9.43;;;8.20;;
66927;SDS011;59882;45.624;11.698;2023-08-21T10:53:34;8.87;;;7.43;;
66927;SDS011;59882;45.624;11.698;2023-08-21T10:56:03;10.63;;;8.30;;
66927;SDS011;59882;45.624;11.698;2023-08-21T10:58:42;11.32;;;8.82;;
66927;SDS011;59882;45.624;11.698;2023-08-21T11:01:08;9.48;;;8.00;;
66927;SDS011;59882;45.624;11.698;2023-08-21T11:03:38;9.25;;;8.15;;
66927;SDS011;59882;45.624;11.698;2023-08-21T11:06:05;10.93;;;8.60;;
66927;SDS011;59882;45.624;11.698;2023-08-21T11:08:33;12.48;;;8.07;;
66927;SDS011;59882;45.624;11.698;2023-08-21T11:11:00;10.07;;;8.95;;
66927;SDS011;59882;45.624;11.698;2023-08-21T11:13:27;9.32;;;8.43;;
66927;SDS011;59882;45.624;11.698;2023-08-21T11:15:59;9.67;;;8.30;;
66927;SDS011;59882;45.624;11.698;2023-08-21T11:18:32;11.43;;;8.98;;
66927;SDS011;59882;45.624;11.698;2023-08-21T11:21:08;9.20;;;7.53;;
66927;SDS011;59882;45.624;11.698;2023-08-21T11:23:37;8.60;;;7.68;;
66927;SDS011;59882;45.624;11.698;2023-08-21T11:26:06;9.23;;;8.18;;
66927;SDS011;59882;45.624;11.698;2023-08-21T11:28:35;8.87;;;8.03;;
66927;SDS011;59882;45.624;11.698;2023-08-21T11:31:00;9.10;;;7.93;;
66927;SDS011;59882;45.624;11.698;2023-08-21T11:33:27;9.60;;;8.27;;
66927;SDS011;59882;45.624;11.698;2023-08-21T11:35:53;12.65;;;7.70;;
66927;SDS011;59882;45.624;11.698;2023-08-21T11:38:22;8.57;;;7.70;;
66927;SDS011;59882;45.624;11.698;2023-08-21T11:40:53;8.73;;;7.82;;
66927;SDS011;59882;45.624;11.698;2023-08-21T11:43:33;8.80;;;6.80;;
66927;SDS011;59882;45.624;11.698;2023-08-21T11:46:00;8.35;;;7.55;;
66927;SDS011;59882;45.624;11.698;2023-08-21T11:48:27;8.30;;;7.47;;
66927;SDS011;59882;45.624;11.698;2023-08-21T11:50:53;8.70;;;7.90;;
66927;SDS011;59882;45.624;11.698;2023-08-21T11:53:31;9.20;;;7.28;;
66927;SDS011;59882;45.624;11.698;2023-08-21T11:56:02;8.68;;;7.07;;
66927;SDS011;59882;45.624;11.698;2023-08-21T11:58:33;9.40;;;7.95;;
66927;SDS011;59882;45.624;11.698;2023-08-21T12:01:03;8.03;;;7.20;;
66927;SDS011;59882;45.624;11.698;2023-08-21T12:03:30;9.18;;;7.85;;
66927;SDS011;59882;45.624;11.698;2023-08-21T12:06:00;8.35;;;7.32;;
66927;SDS011;59882;45.624;11.698;2023-08-21T12:08:38;9.20;;;8.30;;
66927;SDS011;59882;45.624;11.698;2023-08-21T12:11:04;8.27;;;7.45;;
66927;SDS011;59882;45.624;11.698;2023-08-21T12:13:30;8.33;;;7.43;;
66927;SDS011;59882;45.624;11.698;2023-08-21T12:15:56;10.50;;;7.45;;
66927;SDS011;59882;45.624;11.698;2023-08-21T12:18:22;8.98;;;7.75;;
66927;SDS011;59882;45.624;11.698;2023-08-21T12:20:48;11.33;;;7.80;;
66927;SDS011;59882;45.624;11.698;2023-08-21T12:23:14;11.55;;;8.07;;
66927;SDS011;59882;45.624;11.698;2023-08-21T12:25:40;9.98;;;7.90;;
66927;SDS011;59882;45.624;11.698;2023-08-21T12:28:07;6.73;;;5.83;;
66927;SDS011;59882;45.624;11.698;2023-08-21T12:30:33;8.68;;;6.95;;
66927;SDS011;59882;45.624;11.698;2023-08-21T12:32:59;11.23;;;7.65;;
66927;SDS011;59882;45.624;11.698;2023-08-21T12:35:24;9.33;;;7.63;;
66927;SDS011;59882;45.624;11.698;2023-08-21T12:37:50;8.40;;;7.60;;
66927;SDS011;59882;45.624;11.698;2023-08-21T12:40:16;10.23;;;7.40;;
66927;SDS011;59882;45.624;11.698;2023-08-21T12:42:41;10.05;;;7.93;;
66927;SDS011;59882;45.624;11.698;2023-08-21T12:45:07;11.53;;;7.80;;
66927;SDS011;59882;45.624;11.698;2023-08-21T12:47:33;8.50;;;7.70;;
66927;SDS011;59882;45.624;11.698;2023-08-21T12:49:59;9.70;;;7.23;;
66927;SDS011;59882;45.624;11.698;2023-08-21T12:52:24;10.43;;;7.95;;
66927;SDS011;59882;45.624;11.698;2023-08-21T12:54:50;10.97;;;7.90;;
66927;SDS011;59882;45.624;11.698;2023-08-21T12:57:15;8.73;;;7.37;;
66927;SDS011;59882;45.624;11.698;2023-08-21T12:59:42;14.18;;;7.40;;
66927;SDS011;59882;45.624;11.698;2023-08-21T13:02:07;8.23;;;7.53;;
66927;SDS011;59882;45.624;11.698;2023-08-21T13:04:33;8.47;;;7.57;;
66927;SDS011;59882;45.624;11.698;2023-08-21T13:06:59;9.10;;;8.20;;
66927;SDS011;59882;45.624;11.698;2023-08-21T13:09:25;9.60;;;8.20;;
66927;SDS011;59882;45.624;11.698;2023-08-21T13:11:51;9.23;;;8.35;;
66927;SDS011;59882;45.624;11.698;2023-08-21T13:14:16;9.47;;;8.57;;
66927;SDS011;59882;45.624;11.698;2023-08-21T13:16:42;8.75;;;7.63;;
66927;SDS011;59882;45.624;11.698;2023-08-21T13:19:08;9.10;;;8.00;;
66927;SDS011;59882;45.624;11.698;2023-08-21T13:21:33;9.40;;;8.50;;
66927;SDS011;59882;45.624;11.698;2023-08-21T13:23:59;9.40;;;8.60;;
66927;SDS011;59882;45.624;11.698;2023-08-21T13:26:24;9.63;;;8.50;;
66927;SDS011;59882;45.624;11.698;2023-08-21T13:28:50;9.10;;;8.30;;
66927;SDS011;59882;45.624;11.698;2023-08-21T13:31:16;9.77;;;8.87;;
66927;SDS011;59882;45.624;11.698;2023-08-21T13:33:45;9.93;;;8.80;;
66927;SDS011;59882;45.624;11.698;2023-08-21T13:36:12;9.32;;;8.52;;
66927;SDS011;59882;45.624;11.698;2023-08-21T13:38:39;10.63;;;8.83;;
66927;SDS011;59882;45.624;11.698;2023-08-21T13:41:04;9.25;;;8.45;;
66927;SDS011;59882;45.624;11.698;2023-08-21T13:43:30;9.73;;;8.73;;
66927;SDS011;59882;45.624;11.698;2023-08-21T13:45:56;11.02;;;10.13;;
66927;SDS011;59882;45.624;11.698;2023-08-21T13:48:21;10.40;;;9.53;;
66927;SDS011;59882;45.624;11.698;2023-08-21T13:50:47;9.50;;;8.70;;
66927;SDS011;59882;45.624;11.698;2023-08-21T13:53:12;10.60;;;9.60;;
66927;SDS011;59882;45.624;11.698;2023-08-21T13:55:38;9.98;;;9.02;;
66927;SDS011;59882;45.624;11.698;2023-08-21T13:58:04;10.13;;;9.23;;
66927;SDS011;59882;45.624;11.698;2023-08-21T14:00:29;10.63;;;9.63;;
66927;SDS011;59882;45.624;11.698;2023-08-21T14:02:55;10.68;;;9.70;;
66927;SDS011;59882;45.624;11.698;2023-08-21T14:05:20;9.63;;;8.83;;
66927;SDS011;59882;45.624;11.698;2023-08-21T14:07:46;10.68;;;9.77;;
66927;SDS011;59882;45.624;11.698;2023-08-21T14:10:12;10.30;;;9.30;;
66927;SDS011;59882;45.624;11.698;2023-08-21T14:12:39;9.98;;;9.07;;
66927;SDS011;59882;45.624;11.698;2023-08-21T14:15:05;10.68;;;8.65;;
66927;SDS011;59882;45.624;11.698;2023-08-21T14:17:31;9.98;;;9.18;;
66927;SDS011;59882;45.624;11.698;2023-08-21T14:19:57;10.50;;;9.47;;
66927;SDS011;59882;45.624;11.698;2023-08-21T14:22:22;13.20;;;10.20;;